CKK8667 VMMC-VHHX
Flight info
| Callsign | CKK8667 |
|---|---|
| Flight time | 0h 30m |
| Altitude | 17000 |
| Route | ALLEY DCT CH |
| Aircraft | B77L/H-SDE1E2E3FGHIJ2J3J4J5M1RWXY/LB1D1 |
Departure
| Time | 2026-04-20 15:44 |
|---|---|
| Airport | Macau International Airport (VMMC) |
Arrival
| Time | 2026-04-20 16:14 |
|---|---|
| Airport | Hong Kong International Airport Kai Tak (VHHX) |
| Time | Latitude | Longitude | Altitude | Speed | Heading |
|---|---|---|---|---|---|
| 2026-04-20 15:43 | 22.08798 | 113.61454 | 4028 ft | 252 kts | 162° |
| 2026-04-20 15:44 | 22.07686 | 113.61870 | 3997 ft | 255 kts | 162° |
| 2026-04-20 15:45 | 22.00207 | 113.64686 | 3998 ft | 257 kts | 161° |
| 2026-04-20 15:45 | 21.99097 | 113.65103 | 3997 ft | 257 kts | 161° |
| 2026-04-20 15:45 | 21.96842 | 113.65943 | 4083 ft | 257 kts | 162° |
| 2026-04-20 15:45 | 21.95137 | 113.66559 | 4791 ft | 261 kts | 162° |
| 2026-04-20 15:46 | 21.93413 | 113.67179 | 5011 ft | 264 kts | 162° |
| 2026-04-20 15:46 | 21.91656 | 113.67810 | 5001 ft | 267 kts | 162° |
| 2026-04-20 15:46 | 21.89911 | 113.68437 | 4997 ft | 265 kts | 162° |
| 2026-04-20 15:46 | 21.88171 | 113.69063 | 4992 ft | 263 kts | 162° |
| 2026-04-20 15:47 | 21.86443 | 113.69686 | 4992 ft | 262 kts | 162° |
| 2026-04-20 15:47 | 21.84720 | 113.70306 | 4996 ft | 261 kts | 162° |
| 2026-04-20 15:47 | 21.82999 | 113.70926 | 4999 ft | 261 kts | 162° |
| 2026-04-20 15:47 | 21.81281 | 113.71545 | 4997 ft | 262 kts | 162° |
| 2026-04-20 15:48 | 21.79552 | 113.72167 | 4999 ft | 262 kts | 162° |
| 2026-04-20 15:48 | 21.77830 | 113.72787 | 4998 ft | 262 kts | 162° |
| 2026-04-20 15:48 | 21.76101 | 113.73409 | 4998 ft | 263 kts | 162° |
| 2026-04-20 15:48 | 21.74370 | 113.74032 | 5000 ft | 264 kts | 162° |
| 2026-04-20 15:49 | 21.72753 | 113.74889 | 4983 ft | 262 kts | 138° |
| 2026-04-20 15:49 | 21.71762 | 113.76547 | 5010 ft | 272 kts | 109° |
| 2026-04-20 15:49 | 21.71556 | 113.78572 | 5013 ft | 278 kts | 85° |
| 2026-04-20 15:49 | 21.72134 | 113.80543 | 4999 ft | 281 kts | 60° |
| 2026-04-20 15:50 | 21.73430 | 113.82098 | 4994 ft | 282 kts | 34° |
| 2026-04-20 15:50 | 21.75178 | 113.83003 | 5013 ft | 280 kts | 22° |
| 2026-04-20 15:50 | 21.76992 | 113.83770 | 5015 ft | 285 kts | 22° |
| 2026-04-20 15:50 | 21.78855 | 113.84543 | 5008 ft | 286 kts | 22° |
| 2026-04-20 15:51 | 21.82486 | 113.86058 | 4994 ft | 285 kts | 22° |
| 2026-04-20 15:51 | 21.89789 | 113.89156 | 5001 ft | 282 kts | 22° |
| 2026-04-20 15:51 | 21.97076 | 113.92277 | 5008 ft | 281 kts | 22° |
| 2026-04-20 15:51 | 22.04316 | 113.95388 | 5010 ft | 281 kts | 22° |
| 2026-04-20 15:52 | 22.11596 | 113.98519 | 5008 ft | 282 kts | 22° |
| 2026-04-20 15:52 | 22.19030 | 114.00496 | 4972 ft | 282 kts | 336° |
| 2026-04-20 15:52 | 22.20788 | 113.99093 | 4996 ft | 276 kts | 304° |
| 2026-04-20 15:53 | 22.21781 | 113.95262 | 5004 ft | 269 kts | 265° |
| 2026-04-20 15:53 | 22.21689 | 113.93242 | 5007 ft | 271 kts | 264° |
| 2026-04-20 15:53 | 22.21600 | 113.91213 | 5006 ft | 272 kts | 265° |
| 2026-04-20 15:53 | 22.21620 | 113.89181 | 4989 ft | 272 kts | 279° |
| 2026-04-20 15:54 | 22.22432 | 113.87359 | 4998 ft | 271 kts | 309° |
| 2026-04-20 15:54 | 22.23886 | 113.86176 | 4991 ft | 259 kts | 335° |
| 2026-04-20 15:54 | 22.25595 | 113.85766 | 4999 ft | 248 kts | 360° |
| 2026-04-20 15:54 | 22.27245 | 113.86067 | 4998 ft | 236 kts | 21° |
| 2026-04-20 15:55 | 22.28660 | 113.86840 | 5004 ft | 224 kts | 37° |
| 2026-04-20 15:55 | 22.29652 | 113.88061 | 4992 ft | 215 kts | 64° |
| 2026-04-20 15:55 | 22.30379 | 113.89485 | 4893 ft | 223 kts | 60° |
| 2026-04-20 15:55 | 22.31282 | 113.90832 | 4839 ft | 217 kts | 52° |
| 2026-04-20 15:56 | 22.32253 | 113.92032 | 4607 ft | 208 kts | 57° |
| 2026-04-20 15:56 | 22.32593 | 113.93381 | 4496 ft | 178 kts | 108° |
| 2026-04-20 15:56 | 22.31948 | 113.94358 | 4341 ft | 155 kts | 145° |
| 2026-04-20 15:56 | 22.31344 | 113.95256 | 3995 ft | 154 kts | 102° |
| 2026-04-20 15:57 | 22.31473 | 113.96406 | 3684 ft | 156 kts | 86° |
| 2026-04-20 15:57 | 22.31591 | 113.97582 | 3351 ft | 159 kts | 90° |
| 2026-04-20 15:57 | 22.31688 | 113.98772 | 3007 ft | 157 kts | 90° |
| 2026-04-20 15:57 | 22.31781 | 113.99908 | 2725 ft | 150 kts | 89° |
| 2026-04-20 15:58 | 22.31873 | 114.01038 | 2465 ft | 153 kts | 90° |
| 2026-04-20 15:58 | 22.31966 | 114.02181 | 2250 ft | 153 kts | 89° |
| 2026-04-20 15:58 | 22.32060 | 114.03310 | 2032 ft | 149 kts | 88° |
| 2026-04-20 15:58 | 22.32150 | 114.04396 | 1989 ft | 145 kts | 89° |
| 2026-04-20 15:59 | 22.32240 | 114.05507 | 1950 ft | 151 kts | 89° |
| 2026-04-20 15:59 | 22.32333 | 114.06645 | 1844 ft | 153 kts | 88° |
| 2026-04-20 15:59 | 22.32429 | 114.07786 | 1490 ft | 154 kts | 88° |
| 2026-04-20 15:59 | 22.32523 | 114.08913 | 1117 ft | 147 kts | 88° |
| 2026-04-20 16:00 | 22.32616 | 114.10037 | 1053 ft | 151 kts | 87° |
| 2026-04-20 16:00 | 22.32708 | 114.11138 | 1134 ft | 145 kts | 88° |
| 2026-04-20 16:00 | 22.32798 | 114.12238 | 1227 ft | 149 kts | 88° |
| 2026-04-20 16:00 | 22.32872 | 114.13124 | 1256 ft | 149 kts | 88° |
| 2026-04-20 16:01 | 22.32936 | 114.13889 | 1288 ft | 148 kts | 87° |
| 2026-04-20 16:01 | 22.33027 | 114.15005 | 1253 ft | 153 kts | 88° |
| 2026-04-20 16:02 | 22.33114 | 114.16145 | 972 ft | 152 kts | 88° |
| 2026-04-20 16:02 | 22.33194 | 114.17279 | 583 ft | 149 kts | 90° |
| 2026-04-20 16:02 | 22.33141 | 114.18330 | 323 ft | 131 kts | 106° |
| 2026-04-20 16:02 | 22.32585 | 114.19131 | 302 ft | 146 kts | 137° |
| 2026-04-20 16:03 | 22.31935 | 114.19966 | 295 ft | 143 kts | 131° |
| 2026-04-20 16:03 | 22.31252 | 114.20736 | 290 ft | 143 kts | 135° |
| 2026-04-20 16:03 | 22.30552 | 114.21475 | 390 ft | 140 kts | 135° |
| 2026-04-20 16:03 | 22.29887 | 114.22244 | 478 ft | 143 kts | 132° |
| 2026-04-20 16:04 | 22.29218 | 114.23060 | 561 ft | 146 kts | 131° |
| 2026-04-20 16:04 | 22.28541 | 114.23867 | 610 ft | 144 kts | 133° |
| 2026-04-20 16:04 | 22.27868 | 114.24695 | 653 ft | 147 kts | 132° |
| 2026-04-20 16:04 | 22.27175 | 114.25540 | 811 ft | 164 kts | 132° |
| 2026-04-20 16:05 | 22.26447 | 114.26401 | 2166 ft | 136 kts | 136° |
| 2026-04-20 16:05 | 22.25854 | 114.27005 | 3670 ft | 110 kts | 148° |
| 2026-04-20 16:05 | 22.24907 | 114.27221 | 3565 ft | 178 kts | 191° |
| 2026-04-20 16:05 | 22.23821 | 114.25015 | 2743 ft | 176 kts | 265° |
| 2026-04-20 16:06 | 22.23638 | 114.21957 | 2276 ft | 186 kts | 262° |
| 2026-04-20 16:06 | 22.23185 | 114.16418 | 1870 ft | 177 kts | 262° |
| 2026-04-20 16:06 | 22.22707 | 114.11100 | 1981 ft | 184 kts | 261° |
| 2026-04-20 16:06 | 22.22219 | 114.05822 | 1894 ft | 164 kts | 261° |
| 2026-04-20 16:07 | 22.21891 | 114.01339 | 1832 ft | 146 kts | 264° |
| 2026-04-20 16:07 | 22.21745 | 113.96693 | 2098 ft | 162 kts | 264° |
| 2026-04-20 16:07 | 22.21589 | 113.91932 | 1951 ft | 152 kts | 264° |
| 2026-04-20 16:07 | 22.23452 | 113.89186 | 1957 ft | 148 kts | 17° |
| 2026-04-20 16:08 | 22.26464 | 113.89990 | 2282 ft | 180 kts | 15° |
| 2026-04-20 16:08 | 22.27799 | 113.90351 | 2056 ft | 155 kts | 13° |
| 2026-04-20 16:08 | 22.30910 | 113.92515 | 2308 ft | 156 kts | 45° |
| 2026-04-20 16:08 | 22.31947 | 113.97470 | 2129 ft | 174 kts | 90° |
| 2026-04-20 16:09 | 22.32169 | 114.01261 | 1547 ft | 120 kts | 91° |
| 2026-04-20 16:09 | 22.32200 | 114.01775 | 1501 ft | 133 kts | 89° |
| 2026-04-20 16:09 | 22.32270 | 114.02864 | 1795 ft | 146 kts | 89° |
| 2026-04-20 16:09 | 22.32342 | 114.03974 | 1724 ft | 150 kts | 89° |
| 2026-04-20 16:10 | 22.32414 | 114.05108 | 1521 ft | 151 kts | 89° |
| 2026-04-20 16:10 | 22.32487 | 114.06210 | 1324 ft | 142 kts | 89° |
| 2026-04-20 16:10 | 22.32555 | 114.07264 | 1316 ft | 141 kts | 89° |
| 2026-04-20 16:10 | 22.32625 | 114.08318 | 1304 ft | 141 kts | 89° |
| 2026-04-20 16:11 | 22.32693 | 114.09371 | 1312 ft | 141 kts | 89° |
| 2026-04-20 16:11 | 22.32761 | 114.10433 | 1294 ft | 142 kts | 89° |
| 2026-04-20 16:11 | 22.32830 | 114.11486 | 1311 ft | 141 kts | 89° |
| 2026-04-20 16:11 | 22.32898 | 114.12546 | 1303 ft | 142 kts | 89° |
| 2026-04-20 16:12 | 22.32967 | 114.13612 | 1296 ft | 142 kts | 88° |
| 2026-04-20 16:12 | 22.33038 | 114.14673 | 1259 ft | 145 kts | 88° |
| 2026-04-20 16:12 | 22.33126 | 114.15787 | 985 ft | 149 kts | 86° |
| 2026-04-20 16:12 | 22.33209 | 114.16863 | 660 ft | 142 kts | 87° |
| 2026-04-20 16:13 | 22.33217 | 114.17889 | 376 ft | 132 kts | 96° |
| 2026-04-20 16:13 | 22.32916 | 114.18800 | 326 ft | 138 kts | 132° |
| 2026-04-20 16:13 | 22.32245 | 114.19576 | 135 ft | 145 kts | 133° |
| 2026-04-20 16:13 | 22.31560 | 114.20328 | 42 ft | 133 kts | 132° |
| 2026-04-20 16:14 | 22.31026 | 114.20936 | 42 ft | 89 kts | 134° |
| 2026-04-20 16:14 | 22.30742 | 114.21252 | 40 ft | 50 kts | 134° |
| 2026-04-20 16:14 | 22.30561 | 114.21454 | 41 ft | 34 kts | 134° |
| 2026-04-20 16:14 | 22.30441 | 114.21590 | 41 ft | 18 kts | 129° |
| 2026-04-20 16:15 | 22.30457 | 114.21673 | 41 ft | 11 kts | 33° |
| 2026-04-20 16:15 | 22.30531 | 114.21654 | 41 ft | 12 kts | 323° |
| 2026-04-20 16:15 | 22.30589 | 114.21594 | 42 ft | 12 kts | 314° |
| 2026-04-20 16:15 | 22.30646 | 114.21532 | 41 ft | 12 kts | 314° |
| 2026-04-20 16:16 | 22.30684 | 114.21490 | 41 ft | 12 kts | 314° |
| 2026-04-20 16:16 | 22.30760 | 114.21405 | 41 ft | 12 kts | 312° |
| 2026-04-20 16:16 | 22.30818 | 114.21339 | 41 ft | 12 kts | 314° |
| 2026-04-20 16:16 | 22.30876 | 114.21275 | 39 ft | 12 kts | 312° |
| 2026-04-20 16:17 | 22.30932 | 114.21208 | 41 ft | 12 kts | 312° |
| 2026-04-20 16:17 | 22.30986 | 114.21138 | 41 ft | 12 kts | 309° |
| 2026-04-20 16:17 | 22.31040 | 114.21069 | 42 ft | 12 kts | 313° |
| 2026-04-20 16:17 | 22.31099 | 114.21003 | 41 ft | 12 kts | 315° |
| 2026-04-20 16:18 | 22.31146 | 114.20953 | 39 ft | 12 kts | 315° |
| 2026-04-20 16:18 | 22.31163 | 114.20935 | 40 ft | 12 kts | 315° |
| 2026-04-20 16:18 | 22.31222 | 114.20870 | 40 ft | 12 kts | 314° |
| 2026-04-20 16:18 | 22.31281 | 114.20805 | 42 ft | 12 kts | 314° |
| 2026-04-20 16:19 | 22.31340 | 114.20739 | 42 ft | 12 kts | 314° |
| 2026-04-20 16:19 | 22.31401 | 114.20671 | 42 ft | 13 kts | 314° |
| 2026-04-20 16:19 | 22.31465 | 114.20601 | 40 ft | 14 kts | 313° |
| 2026-04-20 16:19 | 22.31488 | 114.20574 | 42 ft | 14 kts | 313° |
| 2026-04-20 16:20 | 22.31504 | 114.20556 | 39 ft | 14 kts | 313° |
| 2026-04-20 16:20 | 22.31571 | 114.20478 | 41 ft | 14 kts | 313° |
| 2026-04-20 16:20 | 22.31641 | 114.20398 | 44 ft | 15 kts | 313° |
| 2026-04-20 16:20 | 22.31700 | 114.20330 | 42 ft | 15 kts | 313° |
| 2026-04-20 16:21 | 22.31752 | 114.20275 | 42 ft | 15 kts | 317° |
| 2026-04-20 16:21 | 22.31827 | 114.20195 | 40 ft | 15 kts | 314° |
| 2026-04-20 16:21 | 22.31900 | 114.20113 | 42 ft | 15 kts | 314° |
| 2026-04-20 16:22 | 22.31973 | 114.20032 | 41 ft | 15 kts | 314° |
| 2026-04-20 16:22 | 22.32046 | 114.19951 | 42 ft | 15 kts | 314° |
| 2026-04-20 16:22 | 22.32119 | 114.19869 | 41 ft | 15 kts | 314° |
| 2026-04-20 16:22 | 22.32192 | 114.19787 | 42 ft | 15 kts | 314° |
| 2026-04-20 16:23 | 22.32265 | 114.19705 | 42 ft | 15 kts | 314° |
| 2026-04-20 16:23 | 22.32340 | 114.19626 | 42 ft | 15 kts | 316° |
| 2026-04-20 16:23 | 22.32418 | 114.19549 | 42 ft | 15 kts | 318° |
| 2026-04-20 16:23 | 22.32496 | 114.19473 | 43 ft | 15 kts | 317° |
| 2026-04-20 16:24 | 22.32571 | 114.19426 | 43 ft | 12 kts | 0° |
| 2026-04-20 16:24 | 22.32628 | 114.19441 | 43 ft | 2 kts | 17° |
| 2026-04-20 16:24 | 22.32633 | 114.19443 | 43 ft | 0 kts | 17° |
| 2026-04-20 16:24 | 22.32643 | 114.19446 | 42 ft | 2 kts | 17° |
| 2026-04-20 16:25 | 22.32657 | 114.19444 | 42 ft | 3 kts | 347° |
| 2026-04-20 16:25 | 22.32676 | 114.19430 | 42 ft | 4 kts | 316° |
| 2026-04-20 16:25 | 22.32698 | 114.19407 | 43 ft | 5 kts | 315° |
| 2026-04-20 16:25 | 22.32709 | 114.19395 | 43 ft | 0 kts | 314° |